Terminal Aerodrome Forecast
Issued by NWS Blacksburg, VA

Current Version | Previous Version | Graphics & Text | Print | Product List | Glossary On
Versions: 1 2 3 4 5 6 7 8 9 10 11 12 13 14 15 16 17 18 19 20 21 22 23 24 25 26 27 28 29 30 31
175
FTUS41 KRNK 260632 AAA
TAFBLF
TAF AMD
KBLF 260632Z 2607/2706 26004KT 1/4SM FG BKN001 OVC020
      TEMPO 2607/2610 4SM BR SCT002 BKN008
     FM261000 VRB03KT 2SM BR SCT002 BKN004
      TEMPO 2610/2613 1/2SM FG VV002
     FM261400 25003KT P6SM SKC=

USA.gov is the U.S. government's official web portal to all federal, state and local government web resources and services.